sensor_id;sensor_type;location;lat;lon;timestamp;temperature;humidity
27114;DHT22;14648;49.730;8.614;2024-01-25T00:01:34;10.60;56.00
27114;DHT22;14648;49.730;8.614;2024-01-25T00:04:00;10.60;56.10
27114;DHT22;14648;49.730;8.614;2024-01-25T00:06:26;10.60;56.10
27114;DHT22;14648;49.730;8.614;2024-01-25T00:08:52;10.60;56.20
27114;DHT22;14648;49.730;8.614;2024-01-25T00:11:18;10.50;56.20
27114;DHT22;14648;49.730;8.614;2024-01-25T00:13:43;10.60;56.20
27114;DHT22;14648;49.730;8.614;2024-01-25T00:16:09;10.60;56.30
27114;DHT22;14648;49.730;8.614;2024-01-25T00:18:35;10.60;56.20
27114;DHT22;14648;49.730;8.614;2024-01-25T00:21:01;10.60;56.30
27114;DHT22;14648;49.730;8.614;2024-01-25T00:23:27;10.60;56.30
27114;DHT22;14648;49.730;8.614;2024-01-25T00:25:53;10.50;56.20
27114;DHT22;14648;49.730;8.614;2024-01-25T00:28:19;10.60;56.30
27114;DHT22;14648;49.730;8.614;2024-01-25T00:30:45;10.60;56.20
27114;DHT22;14648;49.730;8.614;2024-01-25T00:33:10;10.50;56.10
27114;DHT22;14648;49.730;8.614;2024-01-25T00:35:36;10.60;56.10
27114;DHT22;14648;49.730;8.614;2024-01-25T00:38:02;10.60;56.10
27114;DHT22;14648;49.730;8.614;2024-01-25T00:40:30;10.60;56.20
27114;DHT22;14648;49.730;8.614;2024-01-25T00:42:56;10.60;56.10
27114;DHT22;14648;49.730;8.614;2024-01-25T00:45:23;10.50;56.10
27114;DHT22;14648;49.730;8.614;2024-01-25T00:47:50;10.50;56.20
27114;DHT22;14648;49.730;8.614;2024-01-25T00:50:16;10.40;56.20
27114;DHT22;14648;49.730;8.614;2024-01-25T00:52:45;10.40;56.20
27114;DHT22;14648;49.730;8.614;2024-01-25T00:55:11;10.40;56.20
27114;DHT22;14648;49.730;8.614;2024-01-25T00:57:37;10.40;56.20
27114;DHT22;14648;49.730;8.614;2024-01-25T01:00:04;10.40;56.20
27114;DHT22;14648;49.730;8.614;2024-01-25T01:02:39;10.40;56.20
27114;DHT22;14648;49.730;8.614;2024-01-25T01:05:06;10.40;56.10
27114;DHT22;14648;49.730;8.614;2024-01-25T01:07:33;10.40;56.20
27114;DHT22;14648;49.730;8.614;2024-01-25T01:09:59;10.40;56.10
27114;DHT22;14648;49.730;8.614;2024-01-25T01:12:25;10.40;56.80
27114;DHT22;14648;49.730;8.614;2024-01-25T01:14:50;10.40;56.10
27114;DHT22;14648;49.730;8.614;2024-01-25T01:17:16;10.40;56.00
27114;DHT22;14648;49.730;8.614;2024-01-25T01:19:43;10.40;56.00
27114;DHT22;14648;49.730;8.614;2024-01-25T01:22:09;10.40;56.00
27114;DHT22;14648;49.730;8.614;2024-01-25T01:24:35;10.40;56.00
27114;DHT22;14648;49.730;8.614;2024-01-25T01:27:00;10.40;56.10
27114;DHT22;14648;49.730;8.614;2024-01-25T01:29:26;10.40;56.20
27114;DHT22;14648;49.730;8.614;2024-01-25T01:31:53;10.40;56.10
27114;DHT22;14648;49.730;8.614;2024-01-25T01:34:19;10.40;56.10
27114;DHT22;14648;49.730;8.614;2024-01-25T01:36:44;10.40;56.20
27114;DHT22;14648;49.730;8.614;2024-01-25T01:39:10;10.40;56.20
27114;DHT22;14648;49.730;8.614;2024-01-25T01:41:36;10.40;56.20
27114;DHT22;14648;49.730;8.614;2024-01-25T01:44:02;10.40;56.20
27114;DHT22;14648;49.730;8.614;2024-01-25T01:46:36;10.40;56.20
27114;DHT22;14648;49.730;8.614;2024-01-25T01:49:13;10.40;56.20
27114;DHT22;14648;49.730;8.614;2024-01-25T01:51:40;10.30;56.20
27114;DHT22;14648;49.730;8.614;2024-01-25T01:54:09;10.40;56.10
27114;DHT22;14648;49.730;8.614;2024-01-25T01:56:35;10.40;56.10
27114;DHT22;14648;49.730;8.614;2024-01-25T01:59:03;10.40;56.20
27114;DHT22;14648;49.730;8.614;2024-01-25T02:01:31;10.30;56.30
27114;DHT22;14648;49.730;8.614;2024-01-25T02:03:57;10.30;56.20
27114;DHT22;14648;49.730;8.614;2024-01-25T02:06:24;10.30;56.20
27114;DHT22;14648;49.730;8.614;2024-01-25T02:08:49;10.30;56.30
27114;DHT22;14648;49.730;8.614;2024-01-25T02:11:17;10.30;56.20
27114;DHT22;14648;49.730;8.614;2024-01-25T02:13:43;10.30;56.20
27114;DHT22;14648;49.730;8.614;2024-01-25T02:16:09;10.30;56.20
27114;DHT22;14648;49.730;8.614;2024-01-25T02:18:35;10.30;56.20
27114;DHT22;14648;49.730;8.614;2024-01-25T02:21:01;10.30;56.20
27114;DHT22;14648;49.730;8.614;2024-01-25T02:23:27;10.30;56.20
27114;DHT22;14648;49.730;8.614;2024-01-25T02:25:53;10.20;56.10
27114;DHT22;14648;49.730;8.614;2024-01-25T02:28:19;10.20;56.20
27114;DHT22;14648;49.730;8.614;2024-01-25T02:30:44;10.10;56.30
27114;DHT22;14648;49.730;8.614;2024-01-25T02:33:10;10.00;56.30
27114;DHT22;14648;49.730;8.614;2024-01-25T02:35:37;10.00;56.30
27114;DHT22;14648;49.730;8.614;2024-01-25T02:38:03;10.00;56.30
27114;DHT22;14648;49.730;8.614;2024-01-25T02:40:29;10.00;56.20
27114;DHT22;14648;49.730;8.614;2024-01-25T02:42:55;10.00;56.20
27114;DHT22;14648;49.730;8.614;2024-01-25T02:45:22;9.90;56.20
27114;DHT22;14648;49.730;8.614;2024-01-25T02:47:49;9.90;56.20
27114;DHT22;14648;49.730;8.614;2024-01-25T02:50:15;9.90;56.20
27114;DHT22;14648;49.730;8.614;2024-01-25T02:52:41;9.80;56.10
27114;DHT22;14648;49.730;8.614;2024-01-25T02:55:07;9.80;56.10
27114;DHT22;14648;49.730;8.614;2024-01-25T02:57:33;9.70;56.10
27114;DHT22;14648;49.730;8.614;2024-01-25T02:59:59;9.70;56.10
27114;DHT22;14648;49.730;8.614;2024-01-25T03:02:25;9.70;56.10
27114;DHT22;14648;49.730;8.614;2024-01-25T03:04:51;9.70;56.10
27114;DHT22;14648;49.730;8.614;2024-01-25T03:07:17;9.60;56.00
27114;DHT22;14648;49.730;8.614;2024-01-25T03:09:42;9.60;56.00
27114;DHT22;14648;49.730;8.614;2024-01-25T03:12:08;9.50;56.00
27114;DHT22;14648;49.730;8.614;2024-01-25T03:14:35;9.50;56.00
27114;DHT22;14648;49.730;8.614;2024-01-25T03:17:01;9.50;56.10
27114;DHT22;14648;49.730;8.614;2024-01-25T03:19:27;9.40;55.90
27114;DHT22;14648;49.730;8.614;2024-01-25T03:21:53;9.40;56.00
27114;DHT22;14648;49.730;8.614;2024-01-25T03:24:20;9.40;56.00
27114;DHT22;14648;49.730;8.614;2024-01-25T03:26:46;9.30;56.10
27114;DHT22;14648;49.730;8.614;2024-01-25T03:29:12;9.30;56.20
27114;DHT22;14648;49.730;8.614;2024-01-25T03:31:38;9.30;56.20
27114;DHT22;14648;49.730;8.614;2024-01-25T03:34:04;9.20;56.20
27114;DHT22;14648;49.730;8.614;2024-01-25T03:36:30;9.20;56.20
27114;DHT22;14648;49.730;8.614;2024-01-25T03:38:57;9.20;56.20
27114;DHT22;14648;49.730;8.614;2024-01-25T03:41:23;9.20;56.20
27114;DHT22;14648;49.730;8.614;2024-01-25T03:43:49;9.20;56.30
27114;DHT22;14648;49.730;8.614;2024-01-25T03:46:15;9.20;56.20
27114;DHT22;14648;49.730;8.614;2024-01-25T03:48:41;9.10;56.30
27114;DHT22;14648;49.730;8.614;2024-01-25T03:51:07;9.20;56.30
27114;DHT22;14648;49.730;8.614;2024-01-25T03:53:33;9.20;56.20
27114;DHT22;14648;49.730;8.614;2024-01-25T03:55:59;9.10;56.90
27114;DHT22;14648;49.730;8.614;2024-01-25T03:58:25;9.20;56.30
27114;DHT22;14648;49.730;8.614;2024-01-25T04:00:51;9.10;56.30
27114;DHT22;14648;49.730;8.614;2024-01-25T04:03:17;9.10;56.30
27114;DHT22;14648;49.730;8.614;2024-01-25T04:05:43;9.10;56.30
27114;DHT22;14648;49.730;8.614;2024-01-25T04:08:08;9.10;56.90
27114;DHT22;14648;49.730;8.614;2024-01-25T04:10:34;9.10;56.20
27114;DHT22;14648;49.730;8.614;2024-01-25T04:13:00;9.10;56.20
27114;DHT22;14648;49.730;8.614;2024-01-25T04:15:27;9.10;56.20
27114;DHT22;14648;49.730;8.614;2024-01-25T04:17:53;9.10;56.20
27114;DHT22;14648;49.730;8.614;2024-01-25T04:20:19;9.00;56.10
27114;DHT22;14648;49.730;8.614;2024-01-25T04:22:45;9.10;56.30
27114;DHT22;14648;49.730;8.614;2024-01-25T04:25:11;9.00;56.10
27114;DHT22;14648;49.730;8.614;2024-01-25T04:27:38;9.00;56.20
27114;DHT22;14648;49.730;8.614;2024-01-25T04:30:05;9.00;56.20
27114;DHT22;14648;49.730;8.614;2024-01-25T04:32:32;9.10;56.30
27114;DHT22;14648;49.730;8.614;2024-01-25T04:34:57;9.00;56.30
27114;DHT22;14648;49.730;8.614;2024-01-25T04:37:23;9.10;56.30
27114;DHT22;14648;49.730;8.614;2024-01-25T04:39:49;9.20;56.30
27114;DHT22;14648;49.730;8.614;2024-01-25T04:42:15;9.10;56.40
27114;DHT22;14648;49.730;8.614;2024-01-25T04:44:41;9.10;56.40
27114;DHT22;14648;49.730;8.614;2024-01-25T04:47:06;9.20;56.40
27114;DHT22;14648;49.730;8.614;2024-01-25T04:49:32;9.20;56.40
27114;DHT22;14648;49.730;8.614;2024-01-25T04:51:58;9.20;56.40
27114;DHT22;14648;49.730;8.614;2024-01-25T04:54:24;9.20;56.40
27114;DHT22;14648;49.730;8.614;2024-01-25T04:56:49;9.20;56.30
27114;DHT22;14648;49.730;8.614;2024-01-25T04:59:15;9.30;56.40
27114;DHT22;14648;49.730;8.614;2024-01-25T05:01:41;9.20;56.40
27114;DHT22;14648;49.730;8.614;2024-01-25T05:04:06;9.20;56.30
27114;DHT22;14648;49.730;8.614;2024-01-25T05:06:32;9.10;56.40
27114;DHT22;14648;49.730;8.614;2024-01-25T05:08:58;9.00;56.30
27114;DHT22;14648;49.730;8.614;2024-01-25T05:11:24;9.00;56.40
27114;DHT22;14648;49.730;8.614;2024-01-25T05:13:50;8.90;56.50
27114;DHT22;14648;49.730;8.614;2024-01-25T05:16:16;8.90;56.50
27114;DHT22;14648;49.730;8.614;2024-01-25T05:18:41;8.80;56.50
27114;DHT22;14648;49.730;8.614;2024-01-25T05:21:07;8.90;56.60
27114;DHT22;14648;49.730;8.614;2024-01-25T05:23:33;8.80;56.50
27114;DHT22;14648;49.730;8.614;2024-01-25T05:25:58;8.80;56.40
27114;DHT22;14648;49.730;8.614;2024-01-25T05:28:24;8.80;56.40
27114;DHT22;14648;49.730;8.614;2024-01-25T05:30:50;8.80;56.40
27114;DHT22;14648;49.730;8.614;2024-01-25T05:33:16;8.80;56.30
27114;DHT22;14648;49.730;8.614;2024-01-25T05:35:42;8.70;56.40
27114;DHT22;14648;49.730;8.614;2024-01-25T05:38:07;8.70;56.40
27114;DHT22;14648;49.730;8.614;2024-01-25T05:40:33;8.70;56.40
27114;DHT22;14648;49.730;8.614;2024-01-25T05:42:59;8.60;56.30
27114;DHT22;14648;49.730;8.614;2024-01-25T05:45:25;8.60;56.40
27114;DHT22;14648;49.730;8.614;2024-01-25T05:47:51;8.60;56.40
27114;DHT22;14648;49.730;8.614;2024-01-25T05:50:17;8.50;56.50
27114;DHT22;14648;49.730;8.614;2024-01-25T05:52:43;8.60;56.50
27114;DHT22;14648;49.730;8.614;2024-01-25T05:55:09;8.60;56.60
27114;DHT22;14648;49.730;8.614;2024-01-25T05:57:36;8.60;56.70
27114;DHT22;14648;49.730;8.614;2024-01-25T06:00:03;8.60;56.70
27114;DHT22;14648;49.730;8.614;2024-01-25T06:02:30;8.60;56.70
27114;DHT22;14648;49.730;8.614;2024-01-25T06:04:56;8.60;56.70
27114;DHT22;14648;49.730;8.614;2024-01-25T06:07:25;8.70;56.80
27114;DHT22;14648;49.730;8.614;2024-01-25T06:09:51;8.70;56.70
27114;DHT22;14648;49.730;8.614;2024-01-25T06:12:17;8.70;56.80
27114;DHT22;14648;49.730;8.614;2024-01-25T06:14:43;8.70;56.80
27114;DHT22;14648;49.730;8.614;2024-01-25T06:17:08;8.70;56.80
27114;DHT22;14648;49.730;8.614;2024-01-25T06:19:34;8.70;56.80
27114;DHT22;14648;49.730;8.614;2024-01-25T06:22:00;8.70;56.90
27114;DHT22;14648;49.730;8.614;2024-01-25T06:24:26;8.70;56.90
27114;DHT22;14648;49.730;8.614;2024-01-25T06:26:55;8.80;56.80
27114;DHT22;14648;49.730;8.614;2024-01-25T06:29:20;8.80;56.80
27114;DHT22;14648;49.730;8.614;2024-01-25T06:31:46;8.80;56.90
27114;DHT22;14648;49.730;8.614;2024-01-25T06:34:12;8.80;56.80
27114;DHT22;14648;49.730;8.614;2024-01-25T06:36:38;8.80;56.90
27114;DHT22;14648;49.730;8.614;2024-01-25T06:39:04;8.90;57.00
27114;DHT22;14648;49.730;8.614;2024-01-25T06:41:30;8.80;57.00
27114;DHT22;14648;49.730;8.614;2024-01-25T06:43:56;8.80;56.90
27114;DHT22;14648;49.730;8.614;2024-01-25T06:46:21;8.80;57.00
27114;DHT22;14648;49.730;8.614;2024-01-25T06:48:47;8.80;57.00
27114;DHT22;14648;49.730;8.614;2024-01-25T06:51:15;8.80;57.10
27114;DHT22;14648;49.730;8.614;2024-01-25T06:53:41;8.80;57.10
27114;DHT22;14648;49.730;8.614;2024-01-25T06:56:07;8.80;57.20
27114;DHT22;14648;49.730;8.614;2024-01-25T06:58:33;8.80;57.10
27114;DHT22;14648;49.730;8.614;2024-01-25T07:00:59;8.70;57.20
27114;DHT22;14648;49.730;8.614;2024-01-25T07:03:25;8.70;57.20
27114;DHT22;14648;49.730;8.614;2024-01-25T07:05:50;8.70;57.30
27114;DHT22;14648;49.730;8.614;2024-01-25T07:08:16;8.60;57.20
27114;DHT22;14648;49.730;8.614;2024-01-25T07:10:44;8.60;57.20
27114;DHT22;14648;49.730;8.614;2024-01-25T07:13:10;8.50;57.30
27114;DHT22;14648;49.730;8.614;2024-01-25T07:15:36;8.50;57.30
27114;DHT22;14648;49.730;8.614;2024-01-25T07:18:02;8.40;57.20
27114;DHT22;14648;49.730;8.614;2024-01-25T07:20:27;8.40;57.20
27114;DHT22;14648;49.730;8.614;2024-01-25T07:22:53;8.30;57.30
27114;DHT22;14648;49.730;8.614;2024-01-25T07:25:19;8.30;57.20
27114;DHT22;14648;49.730;8.614;2024-01-25T07:27:45;8.20;57.20
27114;DHT22;14648;49.730;8.614;2024-01-25T07:30:12;8.20;57.30
27114;DHT22;14648;49.730;8.614;2024-01-25T07:32:39;8.10;57.30
27114;DHT22;14648;49.730;8.614;2024-01-25T07:35:08;8.10;57.30
27114;DHT22;14648;49.730;8.614;2024-01-25T07:37:35;8.00;57.30
27114;DHT22;14648;49.730;8.614;2024-01-25T07:40:01;7.90;57.30
27114;DHT22;14648;49.730;8.614;2024-01-25T07:42:30;7.90;57.40
27114;DHT22;14648;49.730;8.614;2024-01-25T07:44:57;7.80;57.40
27114;DHT22;14648;49.730;8.614;2024-01-25T07:47:22;7.80;57.40
27114;DHT22;14648;49.730;8.614;2024-01-25T07:49:48;7.80;57.50
27114;DHT22;14648;49.730;8.614;2024-01-25T07:52:14;7.80;58.10
27114;DHT22;14648;49.730;8.614;2024-01-25T07:54:40;7.80;57.40
27114;DHT22;14648;49.730;8.614;2024-01-25T07:57:05;7.80;57.40
27114;DHT22;14648;49.730;8.614;2024-01-25T07:59:31;7.80;57.40
27114;DHT22;14648;49.730;8.614;2024-01-25T08:01:57;7.80;57.30
27114;DHT22;14648;49.730;8.614;2024-01-25T08:04:22;7.80;57.30
27114;DHT22;14648;49.730;8.614;2024-01-25T08:06:48;7.90;57.40
27114;DHT22;14648;49.730;8.614;2024-01-25T08:09:14;7.80;57.30
27114;DHT22;14648;49.730;8.614;2024-01-25T08:11:39;7.90;57.40
27114;DHT22;14648;49.730;8.614;2024-01-25T08:14:05;7.90;57.40
27114;DHT22;14648;49.730;8.614;2024-01-25T08:16:31;7.90;57.40
27114;DHT22;14648;49.730;8.614;2024-01-25T08:18:57;7.80;57.30
27114;DHT22;14648;49.730;8.614;2024-01-25T08:21:24;7.80;57.40
27114;DHT22;14648;49.730;8.614;2024-01-25T08:23:50;7.80;57.50
27114;DHT22;14648;49.730;8.614;2024-01-25T08:26:15;7.80;57.50
27114;DHT22;14648;49.730;8.614;2024-01-25T08:28:42;7.80;57.50
27114;DHT22;14648;49.730;8.614;2024-01-25T08:31:11;7.80;57.60
27114;DHT22;14648;49.730;8.614;2024-01-25T08:33:38;7.90;57.60
27114;DHT22;14648;49.730;8.614;2024-01-25T08:36:07;7.90;57.70
27114;DHT22;14648;49.730;8.614;2024-01-25T08:38:33;7.90;57.70
27114;DHT22;14648;49.730;8.614;2024-01-25T08:40:58;7.90;57.70
27114;DHT22;14648;49.730;8.614;2024-01-25T08:43:24;7.90;57.70
27114;DHT22;14648;49.730;8.614;2024-01-25T08:45:50;7.90;57.70
27114;DHT22;14648;49.730;8.614;2024-01-25T08:48:15;7.90;57.70
27114;DHT22;14648;49.730;8.614;2024-01-25T08:50:41;8.00;57.70
27114;DHT22;14648;49.730;8.614;2024-01-25T08:53:07;8.00;57.70
27114;DHT22;14648;49.730;8.614;2024-01-25T08:55:33;8.00;57.70
27114;DHT22;14648;49.730;8.614;2024-01-25T08:57:59;8.10;57.80
27114;DHT22;14648;49.730;8.614;2024-01-25T09:00:24;8.20;57.70
27114;DHT22;14648;49.730;8.614;2024-01-25T09:02:50;8.20;57.70
27114;DHT22;14648;49.730;8.614;2024-01-25T09:05:16;8.20;57.80
27114;DHT22;14648;49.730;8.614;2024-01-25T09:07:42;8.30;57.90
27114;DHT22;14648;49.730;8.614;2024-01-25T09:10:08;8.30;57.90
27114;DHT22;14648;49.730;8.614;2024-01-25T09:12:35;8.30;57.90
27114;DHT22;14648;49.730;8.614;2024-01-25T09:15:01;8.40;58.00
27114;DHT22;14648;49.730;8.614;2024-01-25T09:17:28;8.50;58.10
27114;DHT22;14648;49.730;8.614;2024-01-25T09:19:53;8.60;58.10
27114;DHT22;14648;49.730;8.614;2024-01-25T09:22:19;8.60;58.10
27114;DHT22;14648;49.730;8.614;2024-01-25T09:24:46;8.70;58.20
27114;DHT22;14648;49.730;8.614;2024-01-25T09:27:12;8.70;58.20
27114;DHT22;14648;49.730;8.614;2024-01-25T09:29:42;8.80;58.20
27114;DHT22;14648;49.730;8.614;2024-01-25T09:32:08;9.00;58.40
27114;DHT22;14648;49.730;8.614;2024-01-25T09:34:36;9.20;58.40
27114;DHT22;14648;49.730;8.614;2024-01-25T09:37:02;9.30;58.50
27114;DHT22;14648;49.730;8.614;2024-01-25T09:39:28;9.60;58.60
27114;DHT22;14648;49.730;8.614;2024-01-25T09:41:55;9.80;58.40
27114;DHT22;14648;49.730;8.614;2024-01-25T09:44:21;10.00;58.70
27114;DHT22;14648;49.730;8.614;2024-01-25T09:46:47;10.20;58.70
27114;DHT22;14648;49.730;8.614;2024-01-25T09:49:12;10.30;58.90
27114;DHT22;14648;49.730;8.614;2024-01-25T09:51:40;10.50;58.80
27114;DHT22;14648;49.730;8.614;2024-01-25T09:54:07;10.60;58.90
27114;DHT22;14648;49.730;8.614;2024-01-25T09:56:34;10.80;59.00
27114;DHT22;14648;49.730;8.614;2024-01-25T09:59:00;10.90;59.10
27114;DHT22;14648;49.730;8.614;2024-01-25T10:01:27;11.00;59.00
27114;DHT22;14648;49.730;8.614;2024-01-25T10:03:53;11.10;59.20
27114;DHT22;14648;49.730;8.614;2024-01-25T10:06:21;11.20;59.30
27114;DHT22;14648;49.730;8.614;2024-01-25T10:08:48;11.30;59.50
27114;DHT22;14648;49.730;8.614;2024-01-25T10:11:14;11.40;59.30
27114;DHT22;14648;49.730;8.614;2024-01-25T10:13:41;11.50;59.50
27114;DHT22;14648;49.730;8.614;2024-01-25T10:16:13;11.60;59.40
27114;DHT22;14648;49.730;8.614;2024-01-25T10:18:45;11.70;59.50
27114;DHT22;14648;49.730;8.614;2024-01-25T10:21:13;11.70;59.50
27114;DHT22;14648;49.730;8.614;2024-01-25T10:23:40;11.80;59.60
27114;DHT22;14648;49.730;8.614;2024-01-25T10:26:08;11.80;59.50
27114;DHT22;14648;49.730;8.614;2024-01-25T10:28:34;11.80;59.60
27114;DHT22;14648;49.730;8.614;2024-01-25T10:31:01;11.90;59.70
27114;DHT22;14648;49.730;8.614;2024-01-25T10:33:30;11.90;59.70
27114;DHT22;14648;49.730;8.614;2024-01-25T10:36:00;11.90;59.60
27114;DHT22;14648;49.730;8.614;2024-01-25T10:38:36;12.00;59.70
27114;DHT22;14648;49.730;8.614;2024-01-25T10:41:04;12.20;59.70
27114;DHT22;14648;49.730;8.614;2024-01-25T10:43:31;12.30;59.70
27114;DHT22;14648;49.730;8.614;2024-01-25T10:45:57;12.40;59.50
27114;DHT22;14648;49.730;8.614;2024-01-25T10:48:27;12.60;59.60
27114;DHT22;14648;49.730;8.614;2024-01-25T10:50:55;12.80;59.50
27114;DHT22;14648;49.730;8.614;2024-01-25T10:53:24;13.00;59.50
27114;DHT22;14648;49.730;8.614;2024-01-25T10:55:52;13.00;59.40
27114;DHT22;14648;49.730;8.614;2024-01-25T10:58:18;13.10;59.60
27114;DHT22;14648;49.730;8.614;2024-01-25T11:00:56;13.10;59.30
27114;DHT22;14648;49.730;8.614;2024-01-25T11:03:30;13.20;59.20
27114;DHT22;14648;49.730;8.614;2024-01-25T11:06:10;13.20;59.00
27114;DHT22;14648;49.730;8.614;2024-01-25T11:08:37;13.20;58.90
27114;DHT22;14648;49.730;8.614;2024-01-25T11:11:10;13.20;59.00
27114;DHT22;14648;49.730;8.614;2024-01-25T11:13:43;13.20;58.80
27114;DHT22;14648;49.730;8.614;2024-01-25T11:16:17;13.10;58.70
27114;DHT22;14648;49.730;8.614;2024-01-25T11:19:01;13.10;58.90
27114;DHT22;14648;49.730;8.614;2024-01-25T11:21:50;13.20;58.70
27114;DHT22;14648;49.730;8.614;2024-01-25T11:24:22;13.20;58.60
27114;DHT22;14648;49.730;8.614;2024-01-25T11:26:54;13.20;58.40
27114;DHT22;14648;49.730;8.614;2024-01-25T11:29:23;13.20;58.40
27114;DHT22;14648;49.730;8.614;2024-01-25T11:31:51;13.30;58.60
27114;DHT22;14648;49.730;8.614;2024-01-25T11:34:17;13.40;58.40
27114;DHT22;14648;49.730;8.614;2024-01-25T11:36:44;13.30;58.10
27114;DHT22;14648;49.730;8.614;2024-01-25T11:39:11;13.30;58.20
27114;DHT22;14648;49.730;8.614;2024-01-25T11:41:38;13.40;58.20
27114;DHT22;14648;49.730;8.614;2024-01-25T11:44:04;13.40;58.60
27114;DHT22;14648;49.730;8.614;2024-01-25T11:46:33;13.40;57.90
27114;DHT22;14648;49.730;8.614;2024-01-25T11:48:59;13.40;57.70
27114;DHT22;14648;49.730;8.614;2024-01-25T11:51:24;13.50;57.70
27114;DHT22;14648;49.730;8.614;2024-01-25T11:53:50;13.50;57.70
27114;DHT22;14648;49.730;8.614;2024-01-25T11:56:30;13.50;57.60
27114;DHT22;14648;49.730;8.614;2024-01-25T11:58:58;13.60;57.40
27114;DHT22;14648;49.730;8.614;2024-01-25T12:01:33;13.70;57.50
27114;DHT22;14648;49.730;8.614;2024-01-25T12:04:02;13.90;57.50
27114;DHT22;14648;49.730;8.614;2024-01-25T12:06:28;13.90;57.90
27114;DHT22;14648;49.730;8.614;2024-01-25T12:08:55;13.90;57.30
27114;DHT22;14648;49.730;8.614;2024-01-25T12:11:21;14.00;57.30
27114;DHT22;14648;49.730;8.614;2024-01-25T12:13:48;14.00;57.30
27114;DHT22;14648;49.730;8.614;2024-01-25T12:16:17;14.10;57.20
27114;DHT22;14648;49.730;8.614;2024-01-25T12:18:43;14.10;57.20
27114;DHT22;14648;49.730;8.614;2024-01-25T12:21:09;14.20;57.20
27114;DHT22;14648;49.730;8.614;2024-01-25T12:23:39;14.30;56.90
27114;DHT22;14648;49.730;8.614;2024-01-25T12:26:09;14.30;56.80
27114;DHT22;14648;49.730;8.614;2024-01-25T12:28:36;14.20;56.60
27114;DHT22;14648;49.730;8.614;2024-01-25T12:31:03;14.10;56.80
27114;DHT22;14648;49.730;8.614;2024-01-25T12:33:31;14.10;56.70
27114;DHT22;14648;49.730;8.614;2024-01-25T12:35:58;14.00;56.70
27114;DHT22;14648;49.730;8.614;2024-01-25T12:38:24;14.10;56.70
27114;DHT22;14648;49.730;8.614;2024-01-25T12:40:52;14.20;56.80
27114;DHT22;14648;49.730;8.614;2024-01-25T12:43:18;14.40;56.60
27114;DHT22;14648;49.730;8.614;2024-01-25T12:45:47;14.40;56.60
27114;DHT22;14648;49.730;8.614;2024-01-25T12:48:13;14.60;56.70
27114;DHT22;14648;49.730;8.614;2024-01-25T12:50:39;14.80;56.80
27114;DHT22;14648;49.730;8.614;2024-01-25T12:53:05;15.00;56.50
27114;DHT22;14648;49.730;8.614;2024-01-25T12:55:32;15.00;56.30
27114;DHT22;14648;49.730;8.614;2024-01-25T12:57:59;14.90;56.30
27114;DHT22;14648;49.730;8.614;2024-01-25T13:00:24;14.80;56.10
27114;DHT22;14648;49.730;8.614;2024-01-25T13:02:51;14.70;56.00
27114;DHT22;14648;49.730;8.614;2024-01-25T13:05:17;14.70;55.90
27114;DHT22;14648;49.730;8.614;2024-01-25T13:07:43;14.70;55.80
27114;DHT22;14648;49.730;8.614;2024-01-25T13:10:09;14.80;55.90
27114;DHT22;14648;49.730;8.614;2024-01-25T13:12:39;14.90;56.30
27114;DHT22;14648;49.730;8.614;2024-01-25T13:15:06;15.10;55.50
27114;DHT22;14648;49.730;8.614;2024-01-25T13:17:34;15.20;56.20
27114;DHT22;14648;49.730;8.614;2024-01-25T13:20:02;15.40;55.40
27114;DHT22;14648;49.730;8.614;2024-01-25T13:22:28;15.50;55.60
27114;DHT22;14648;49.730;8.614;2024-01-25T13:24:55;15.70;55.60
27114;DHT22;14648;49.730;8.614;2024-01-25T13:27:21;15.80;55.60
27114;DHT22;14648;49.730;8.614;2024-01-25T13:29:47;16.00;55.60
27114;DHT22;14648;49.730;8.614;2024-01-25T13:32:12;16.10;55.50
27114;DHT22;14648;49.730;8.614;2024-01-25T13:34:38;16.20;55.20
27114;DHT22;14648;49.730;8.614;2024-01-25T13:37:04;16.10;55.20
27114;DHT22;14648;49.730;8.614;2024-01-25T13:39:30;16.00;55.20
27114;DHT22;14648;49.730;8.614;2024-01-25T13:41:55;15.90;55.10
27114;DHT22;14648;49.730;8.614;2024-01-25T13:44:22;15.80;54.90
27114;DHT22;14648;49.730;8.614;2024-01-25T13:46:48;15.60;54.50
27114;DHT22;14648;49.730;8.614;2024-01-25T13:49:13;15.50;54.40
27114;DHT22;14648;49.730;8.614;2024-01-25T13:51:39;15.30;54.40
27114;DHT22;14648;49.730;8.614;2024-01-25T13:54:05;15.20;54.50
27114;DHT22;14648;49.730;8.614;2024-01-25T13:56:31;15.20;54.40
27114;DHT22;14648;49.730;8.614;2024-01-25T13:58:56;15.20;54.20
27114;DHT22;14648;49.730;8.614;2024-01-25T14:01:22;15.30;54.00
27114;DHT22;14648;49.730;8.614;2024-01-25T14:03:48;15.30;53.90
27114;DHT22;14648;49.730;8.614;2024-01-25T14:06:14;15.20;53.50
27114;DHT22;14648;49.730;8.614;2024-01-25T14:08:39;15.20;53.40
27114;DHT22;14648;49.730;8.614;2024-01-25T14:11:05;15.10;53.20
27114;DHT22;14648;49.730;8.614;2024-01-25T14:13:32;14.90;53.10
27114;DHT22;14648;49.730;8.614;2024-01-25T14:15:58;14.70;53.10
27114;DHT22;14648;49.730;8.614;2024-01-25T14:18:27;14.60;53.00
27114;DHT22;14648;49.730;8.614;2024-01-25T14:20:55;14.50;53.60
27114;DHT22;14648;49.730;8.614;2024-01-25T14:23:20;14.40;52.70
27114;DHT22;14648;49.730;8.614;2024-01-25T14:25:46;14.30;52.60
27114;DHT22;14648;49.730;8.614;2024-01-25T14:28:12;14.30;52.60
27114;DHT22;14648;49.730;8.614;2024-01-25T14:30:37;14.20;52.40
27114;DHT22;14648;49.730;8.614;2024-01-25T14:33:03;14.10;52.30
27114;DHT22;14648;49.730;8.614;2024-01-25T14:35:29;14.00;52.30
27114;DHT22;14648;49.730;8.614;2024-01-25T14:37:56;13.90;52.10
27114;DHT22;14648;49.730;8.614;2024-01-25T14:40:22;13.80;52.10
27114;DHT22;14648;49.730;8.614;2024-01-25T14:42:49;13.70;52.20
27114;DHT22;14648;49.730;8.614;2024-01-25T14:45:15;13.70;52.10
27114;DHT22;14648;49.730;8.614;2024-01-25T14:47:41;13.50;51.90
27114;DHT22;14648;49.730;8.614;2024-01-25T14:50:07;13.50;51.90
27114;DHT22;14648;49.730;8.614;2024-01-25T14:52:33;13.40;51.80
27114;DHT22;14648;49.730;8.614;2024-01-25T14:55:03;13.30;51.80
27114;DHT22;14648;49.730;8.614;2024-01-25T14:57:30;13.30;51.80
27114;DHT22;14648;49.730;8.614;2024-01-25T14:59:56;13.20;51.70
27114;DHT22;14648;49.730;8.614;2024-01-25T15:02:22;13.20;51.50
27114;DHT22;14648;49.730;8.614;2024-01-25T15:04:47;13.10;51.50
27114;DHT22;14648;49.730;8.614;2024-01-25T15:07:13;13.10;51.50
27114;DHT22;14648;49.730;8.614;2024-01-25T15:09:40;13.00;51.30
27114;DHT22;14648;49.730;8.614;2024-01-25T15:12:08;13.00;51.30
27114;DHT22;14648;49.730;8.614;2024-01-25T15:14:34;13.00;51.30
27114;DHT22;14648;49.730;8.614;2024-01-25T15:17:03;13.00;51.20
27114;DHT22;14648;49.730;8.614;2024-01-25T15:19:28;12.90;51.20
27114;DHT22;14648;49.730;8.614;2024-01-25T15:21:54;12.80;51.10
27114;DHT22;14648;49.730;8.614;2024-01-25T15:24:20;12.70;51.20
27114;DHT22;14648;49.730;8.614;2024-01-25T15:26:46;12.60;51.20
27114;DHT22;14648;49.730;8.614;2024-01-25T15:29:11;12.50;51.20
27114;DHT22;14648;49.730;8.614;2024-01-25T15:31:37;12.40;51.20
27114;DHT22;14648;49.730;8.614;2024-01-25T15:34:03;12.30;51.20